Higman Leader — WDH6840 — position and weather

sailwx.info

Track history (hours):
 
Tides and Currents Weather Stations Pressure Air Temp Water Temp Dewpoint Dewpoint Depression Visibility Wind Speed Wind Dir Waves Ship Positions

Higman Leader

Owner: Higman Barge Lines, Inc., Orange, TX. More information available from US FCC via Universal Licensing System and Coast Guard Vessel Documentation Center.

Last reported at 2018-Jun-13 21:09 UTC. Time now 2018-Jun-20 11:23 UTC.
Position N 29°60' W 090°26'.

Length 307 m; draft 3 m.

Type: Towing. MMSI: 367642130.

Date/timePositionNaut miles runAvg speedWind from/ knotsBaromVisibWave heightAir tempDewpointWater temp
2018-Jun-13 21:09N 29°60' W 090°26'  
2018-Jun-04 06:55N 31°58' W 091°11'4 9.5
2018-Jun-04 06:29N 31°59' W 091°07'6 9.2
2018-Jun-04 05:53N 32°04' W 091°04'4 9.8
2018-Jun-04 05:30N 32°07' W 091°06'5 9.2
2018-Jun-04 05:00N 32°08' W 091°01'510.7
2018-Jun-04 04:30N 32°13' W 090°59'5 9.9
2018-Jun-04 04:00N 32°17' W 090°56'4 7.3
2018-Jun-04 03:30N 32°21' W 090°55'4 9.0
2018-Jun-04 03:00N 32°22' W 091°00'4 8.2
2018-Jun-04 02:30N 32°26' W 091°02'510.0
2018-Jun-04 02:00N 32°29' W 091°07'5 9.9
2018-Jun-04 01:30N 32°34' W 091°06'5 9.6
2018-Jun-04 01:00N 32°38' W 091°09'7 9.4
2018-Jun-04 00:17N 32°43' W 091°03'5 8.9
2018-Jun-03 23:45N 32°45' W 091°09'  
Track history (hours):
 
Tides and Currents Weather Stations Pressure Air Temp Water Temp Dewpoint Dewpoint Depression Visibility Wind Speed Wind Dir Waves Ship Positions

Higman Leader

Owner: Higman Barge Lines, Inc., Orange, TX. More information available from US FCC via Universal Licensing System and Coast Guard Vessel Documentation Center.

Last reported at 2018-Jun-13 21:09 UTC. Time now 2018-Jun-20 11:23 UTC.
Position N 29°60' W 090°26'.

Length 307 m; draft 3 m.

Type: Towing. MMSI: 367642130.

Date/timePositionNaut miles runAvg speedWind from/ knotsBaromVisibWave heightAir tempDewpointWater temp
2018-Jun-13 21:09N 29°60' W 090°26'  
2018-Jun-04 06:55N 31°58' W 091°11'4 9.5
2018-Jun-04 06:29N 31°59' W 091°07'6 9.2
2018-Jun-04 05:53N 32°04' W 091°04'4 9.8
2018-Jun-04 05:30N 32°07' W 091°06'5 9.2
2018-Jun-04 05:00N 32°08' W 091°01'510.7
2018-Jun-04 04:30N 32°13' W 090°59'5 9.9
2018-Jun-04 04:00N 32°17' W 090°56'4 7.3
2018-Jun-04 03:30N 32°21' W 090°55'4 9.0
2018-Jun-04 03:00N 32°22' W 091°00'4 8.2
2018-Jun-04 02:30N 32°26' W 091°02'510.0
2018-Jun-04 02:00N 32°29' W 091°07'5 9.9
2018-Jun-04 01:30N 32°34' W 091°06'5 9.6
2018-Jun-04 01:00N 32°38' W 091°09'7 9.4
2018-Jun-04 00:17N 32°43' W 091°03'5 8.9
2018-Jun-03 23:45N 32°45' W 091°09'  

Dump ship's entire track history